Time;durP1;ratioP1;P1;durP2;ratioP2;P2;SDS_P1;SDS_P2;PMS_P1;PMS_P2;Temp;Humidity;BMP_temperature;BMP_pressure;BME280_temperature;BME280_humidity;BME280_pressure;Samples;Min_cycle;Max_cycle;Signal;HPM_P1;HPM_P2
2023/08/19 00:00:32;;;;;;;3.65;2.55;;;23.60;1.00;;;;;;7389061;19;20082;-71
2023/08/19 00:03:05;;;;;;;3.58;2.25;;;23.60;1.00;;;;;;7390778;19;20078;-72
2023/08/19 00:05:35;;;;;;;4.47;2.70;;;23.70;1.00;;;;;;7388661;19;20375;-72
2023/08/19 00:08:05;;;;;;;4.63;2.63;;;23.60;1.00;;;;;;7390358;19;20019;-72
2023/08/19 00:10:35;;;;;;;6.05;2.80;;;23.50;1.00;;;;;;7388618;19;20019;-72
2023/08/19 00:13:06;;;;;;;3.55;2.60;;;23.50;1.00;;;;;;7389721;19;20007;-71
2023/08/19 00:15:36;;;;;;;3.67;2.47;;;23.50;1.00;;;;;;7387860;19;20351;-71
2023/08/19 00:18:09;;;;;;;4.00;2.78;;;23.40;1.00;;;;;;7390039;19;20007;-71
2023/08/19 00:20:39;;;;;;;5.15;2.50;;;23.40;1.00;;;;;;7388198;19;20110;-72
2023/08/19 00:23:09;;;;;;;6.63;2.85;;;23.30;1.00;;;;;;7389575;19;20122;-72
2023/08/19 00:25:39;;;;;;;4.45;2.72;;;23.30;1.00;;;;;;7388841;19;20031;-71
2023/08/19 00:28:10;;;;;;;5.00;2.78;;;23.30;1.00;;;;;;7389583;19;20010;-71
2023/08/19 00:30:40;;;;;;;6.70;2.90;;;23.20;1.00;;;;;;7386957;19;20020;-72
2023/08/19 00:33:12;;;;;;;4.55;2.60;;;23.20;1.00;;;;;;7389452;19;20018;-71
2023/08/19 00:35:42;;;;;;;3.70;2.22;;;23.10;1.00;;;;;;7387090;19;20007;-71
2023/08/19 00:38:12;;;;;;;7.28;2.92;;;23.10;1.00;;;;;;7389380;19;20015;-71
2023/08/19 00:40:42;;;;;;;3.55;2.80;;;23.00;1.00;;;;;;7388010;19;20011;-71
2023/08/19 00:43:12;;;;;;;4.35;3.03;;;23.00;1.00;;;;;;7388931;19;20077;-70
2023/08/19 00:45:46;;;;;;;4.35;2.38;;;22.90;1.00;;;;;;7388583;19;20015;-71
2023/08/19 00:48:21;;;;;;;4.75;2.90;;;23.00;1.00;;;;;;7388475;19;20014;-71
2023/08/19 00:50:52;;;;;;;6.47;2.97;;;22.90;1.00;;;;;;7387076;19;20029;-71
2023/08/19 00:53:23;;;;;;;6.05;2.92;;;22.80;1.00;;;;;;7387777;19;20014;-72
2023/08/19 00:55:54;;;;;;;4.85;2.67;;;22.70;1.00;;;;;;7386875;19;20074;-71
2023/08/19 00:58:25;;;;;;;5.20;2.88;;;22.80;1.00;;;;;;7388302;19;20051;-70
2023/08/19 01:00:55;;;;;;;3.92;2.72;;;22.80;1.00;;;;;;7387093;19;20011;-71
2023/08/19 01:03:27;;;;;;;4.97;3.10;;;22.90;1.00;;;;;;7387906;19;20525;-71
2023/08/19 01:06:09;;;;;;;3.70;2.72;;;22.90;1.00;;;;;;7387628;19;20039;-71
2023/08/19 01:08:45;;;;;;;7.55;3.05;;;22.90;1.00;;;;;;7387910;19;20018;-70
2023/08/19 01:11:25;;;;;;;5.63;3.28;;;22.90;1.00;;;;;;7386785;19;20078;-71
2023/08/19 01:14:00;;;;;;;5.57;2.72;;;22.80;1.00;;;;;;7385719;19;20010;-71
2023/08/19 01:16:32;;;;;;;3.70;2.72;;;22.80;1.00;;;;;;7387590;19;20019;-71
2023/08/19 01:19:08;;;;;;;3.83;3.00;;;22.80;1.00;;;;;;7387411;19;20018;-70
2023/08/19 01:21:39;;;;;;;4.97;2.75;;;22.60;1.00;;;;;;7386362;19;20019;-71
2023/08/19 01:24:11;;;;;;;3.35;2.65;;;22.60;1.00;;;;;;7385391;19;20035;-71
2023/08/19 01:26:43;;;;;;;4.40;2.90;;;22.60;1.00;;;;;;7387302;19;20025;-72
2023/08/19 01:29:13;;;;;;;5.03;2.85;;;22.60;1.00;;;;;;7386212;19;20479;-72
2023/08/19 01:31:43;;;;;;;5.88;3.10;;;22.60;1.00;;;;;;7385784;19;20090;-72
2023/08/19 01:34:13;;;;;;;3.97;2.95;;;22.60;1.00;;;;;;7386810;19;20090;-71
2023/08/19 01:36:47;;;;;;;6.50;2.80;;;22.60;1.00;;;;;;7387280;19;20019;-71
2023/08/19 01:39:18;;;;;;;8.07;3.20;;;22.70;1.00;;;;;;7385316;19;20452;-71
2023/08/19 01:41:51;;;;;;;3.97;3.10;;;22.70;1.00;;;;;;7389389;19;20013;-72
2023/08/19 01:44:22;;;;;;;7.13;2.80;;;22.60;1.00;;;;;;7394660;19;20042;-71
2023/08/19 01:46:51;;;;;;;5.18;2.63;;;22.60;1.00;;;;;;7397551;19;20018;-71
2023/08/19 01:49:21;;;;;;;5.13;2.58;;;22.60;1.00;;;;;;7393154;19;20053;-71
2023/08/19 01:51:53;;;;;;;5.10;2.80;;;22.60;1.00;;;;;;7391380;19;20014;-71
2023/08/19 01:54:23;;;;;;;4.50;2.78;;;22.50;1.00;;;;;;7394012;19;20027;-71
2023/08/19 01:56:55;;;;;;;6.15;2.97;;;22.60;1.00;;;;;;7391037;19;20014;-71
2023/08/19 01:59:25;;;;;;;4.55;2.90;;;22.40;1.00;;;;;;7393905;19;20018;-72
2023/08/19 02:01:55;;;;;;;6.07;2.85;;;22.30;1.00;;;;;;7391359;19;20074;-71
2023/08/19 02:04:25;;;;;;;5.25;2.90;;;22.30;1.00;;;;;;7393316;19;20021;-71
2023/08/19 02:06:55;;;;;;;6.53;2.97;;;22.30;1.00;;;;;;7393986;19;20119;-71
2023/08/19 02:09:25;;;;;;;4.45;3.05;;;22.30;1.00;;;;;;7393860;19;20082;-71
2023/08/19 02:11:58;;;;;;;2.90;2.60;;;22.20;1.00;;;;;;7391120;19;20014;-71
2023/08/19 02:14:28;;;;;;;5.85;3.28;;;22.10;1.00;;;;;;7393387;19;20047;-72
2023/08/19 02:16:58;;;;;;;5.78;2.60;;;22.10;1.00;;;;;;7390618;19;20010;-72
2023/08/19 02:19:28;;;;;;;4.70;2.78;;;22.10;1.00;;;;;;7392778;19;20043;-72
2023/08/19 02:21:58;;;;;;;4.85;2.67;;;22.00;1.00;;;;;;7392956;19;20014;-72
2023/08/19 02:24:28;;;;;;;4.43;3.15;;;22.00;1.00;;;;;;7392339;19;20343;-72
2023/08/19 02:27:00;;;;;;;3.38;2.90;;;21.90;1.00;;;;;;7392739;19;20100;-72
2023/08/19 02:29:30;;;;;;;4.85;3.20;;;21.90;1.00;;;;;;7392780;19;20060;-72
2023/08/19 02:32:00;;;;;;;5.45;3.00;;;22.00;1.00;;;;;;7393062;19;20018;-72
2023/08/19 02:34:30;;;;;;;6.18;2.72;;;22.00;1.00;;;;;;7392519;19;20491;-72
2023/08/19 02:37:00;;;;;;;4.43;3.15;;;21.90;1.00;;;;;;7391120;19;20135;-72
2023/08/19 02:39:30;;;;;;;5.63;3.53;;;21.90;1.00;;;;;;7392700;19;20018;-72
2023/08/19 02:42:02;;;;;;;5.18;3.42;;;21.90;1.00;;;;;;7392704;19;20024;-72
2023/08/19 02:44:32;;;;;;;5.40;3.40;;;21.90;1.00;;;;;;7392202;19;20023;-71
2023/08/19 02:47:02;;;;;;;3.22;2.65;;;21.80;1.00;;;;;;7395778;19;20497;-70
2023/08/19 02:49:32;;;;;;;4.35;3.30;;;21.80;1.00;;;;;;7391935;19;20538;-71
2023/08/19 02:52:02;;;;;;;4.72;3.03;;;21.80;1.00;;;;;;7391646;19;20015;-71
2023/08/19 02:54:32;;;;;;;6.13;3.55;;;21.80;1.00;;;;;;7391481;19;20098;-71
2023/08/19 02:57:05;;;;;;;5.93;3.65;;;21.70;1.00;;;;;;7390497;19;20017;-71
2023/08/19 02:59:35;;;;;;;9.02;4.15;;;21.60;1.00;;;;;;7392061;19;20023;-71
2023/08/19 03:02:05;;;;;;;5.65;3.67;;;21.70;1.00;;;;;;7392428;19;20522;-72
2023/08/19 03:04:35;;;;;;;7.57;4.07;;;21.60;1.00;;;;;;7391721;19;20029;-72
2023/08/19 03:07:05;;;;;;;5.00;3.80;;;21.60;1.00;;;;;;7391318;19;20506;-72
2023/08/19 03:09:35;;;;;;;7.97;4.20;;;21.60;1.00;;;;;;7391207;19;20090;-71
2023/08/19 03:12:10;;;;;;;5.47;4.18;;;21.60;1.00;;;;;;7391311;19;20045;-72
2023/08/19 03:14:39;;;;;;;6.05;4.75;;;21.50;1.00;;;;;;7391465;19;20015;-71
2023/08/19 03:17:09;;;;;;;8.15;4.32;;;21.50;1.00;;;;;;7389577;19;20055;-70
2023/08/19 03:19:39;;;;;;;5.95;4.07;;;21.50;1.00;;;;;;7391669;19;20015;-72
2023/08/19 03:22:09;;;;;;;6.57;4.07;;;21.50;1.00;;;;;;7391514;19;20077;-72
2023/08/19 03:24:39;;;;;;;6.05;4.13;;;21.40;1.00;;;;;;7390443;19;20018;-72
2023/08/19 03:27:12;;;;;;;5.25;4.05;;;21.40;1.00;;;;;;7390969;19;20090;-72
2023/08/19 03:29:42;;;;;;;6.43;4.10;;;21.30;1.00;;;;;;7390692;19;20085;-71
2023/08/19 03:32:12;;;;;;;6.45;4.65;;;21.30;1.00;;;;;;7391025;19;20031;-72
2023/08/19 03:34:41;;;;;;;7.90;4.43;;;21.20;1.00;;;;;;7390848;19;20019;-72
2023/08/19 03:37:12;;;;;;;8.38;3.92;;;21.10;1.00;;;;;;7390313;19;20686;-72
2023/08/19 03:39:41;;;;;;;8.35;4.43;;;21.10;1.00;;;;;;7390617;19;20026;-71
2023/08/19 03:42:14;;;;;;;11.85;4.53;;;21.20;1.00;;;;;;7388562;19;20015;-71
2023/08/19 03:44:44;;;;;;;12.30;8.48;;;21.10;1.00;;;;;;7388800;19;20025;-71
2023/08/19 03:47:15;;;;;;;9.32;4.90;;;21.10;1.00;;;;;;7394573;19;20019;-71
2023/08/19 03:49:44;;;;;;;7.95;5.70;;;21.00;1.00;;;;;;7390528;19;20020;-70
2023/08/19 03:52:14;;;;;;;6.88;4.90;;;20.90;1.00;;;;;;7389600;19;20340;-70
2023/08/19 03:54:44;;;;;;;7.47;5.03;;;20.90;1.00;;;;;;7390053;19;20041;-71
2023/08/19 03:57:17;;;;;;;8.18;5.65;;;20.90;1.00;;;;;;7388996;19;20014;-71
2023/08/19 03:59:51;;;;;;;7.15;4.55;;;20.90;1.00;;;;;;7390107;19;20018;-71
2023/08/19 04:02:21;;;;;;;7.80;4.82;;;20.90;1.00;;;;;;7390136;19;20043;-71
2023/08/19 04:05:02;;;;;;;9.02;4.65;;;20.90;1.00;;;;;;7387642;19;20099;-71
2023/08/19 04:07:35;;;;;;;7.70;4.93;;;20.90;1.00;;;;;;7390360;19;20849;-71
2023/08/19 04:10:06;;;;;;;10.15;5.20;;;20.90;1.00;;;;;;7389425;19;20074;-71
2023/08/19 04:12:39;;;;;;;6.13;5.00;;;20.80;1.00;;;;;;7389746;19;20506;-71
2023/08/19 04:15:11;;;;;;;9.50;5.30;;;20.70;1.00;;;;;;7389310;19;20406;-71
2023/08/19 04:17:41;;;;;;;7.07;5.00;;;20.80;1.00;;;;;;7388162;19;20042;-71
2023/08/19 04:20:13;;;;;;;8.98;5.90;;;20.70;1.00;;;;;;7388783;19;20700;-72
2023/08/19 04:22:44;;;;;;;8.73;5.03;;;20.80;1.00;;;;;;7389359;19;20014;-72
2023/08/19 04:25:14;;;;;;;8.18;4.93;;;20.90;1.00;;;;;;7387596;19;20035;-71
2023/08/19 04:27:47;;;;;;;9.90;5.40;;;20.90;1.00;;;;;;7389280;19;20018;-71
2023/08/19 04:30:17;;;;;;;8.85;5.15;;;20.80;1.00;;;;;;7388323;19;20014;-71
2023/08/19 04:32:47;;;;;;;8.07;5.70;;;20.80;1.00;;;;;;7387835;19;20328;-71
2023/08/19 04:35:17;;;;;;;8.25;5.82;;;20.80;1.00;;;;;;7389172;19;20083;-71
2023/08/19 04:37:47;;;;;;;10.10;5.57;;;20.90;1.00;;;;;;7388137;19;20014;-71
2023/08/19 04:40:17;;;;;;;7.55;5.07;;;20.90;1.00;;;;;;7388495;19;20088;-70
2023/08/19 04:42:50;;;;;;;11.88;5.88;;;21.30;1.00;;;;;;7389048;19;20011;-71
2023/08/19 04:45:20;;;;;;;11.77;5.50;;;21.80;1.00;;;;;;7389079;19;20093;-70
2023/08/19 04:47:50;;;;;;;11.07;5.65;;;22.40;1.00;;;;;;7388503;19;20039;-71
2023/08/19 04:50:21;;;;;;;7.35;5.35;;;22.80;1.00;;;;;;7387623;19;20014;-71
2023/08/19 04:52:51;;;;;;;12.65;5.68;;;23.30;1.00;;;;;;7388459;19;20010;-72
2023/08/19 04:55:21;;;;;;;8.43;5.18;;;23.30;1.00;;;;;;7388200;19;20018;-72
2023/08/19 04:57:54;;;;;;;7.10;4.50;;;23.70;1.00;;;;;;7387565;19;20022;-72
2023/08/19 05:00:24;;;;;;;7.18;4.75;;;24.00;1.00;;;;;;7387893;19;20077;-71
2023/08/19 05:02:54;;;;;;;8.95;4.60;;;24.30;1.00;;;;;;7388406;19;20046;-72
2023/08/19 05:05:24;;;;;;;8.18;4.53;;;24.60;1.00;;;;;;7388330;19;20015;-72
2023/08/19 05:07:54;;;;;;;5.07;4.25;;;24.60;1.00;;;;;;7388025;19;20015;-72
2023/08/19 05:10:24;;;;;;;5.32;4.22;;;24.60;1.00;;;;;;7387623;19;20108;-72
2023/08/19 05:12:58;;;;;;;6.57;4.32;;;24.90;1.00;;;;;;7388641;19;20082;-72
2023/08/19 05:15:28;;;;;;;5.85;3.75;;;25.50;1.00;;;;;;7388233;19;20022;-71
2023/08/19 05:17:58;;;;;;;5.60;3.75;;;24.30;1.00;;;;;;7393703;19;20018;-71
2023/08/19 05:20:27;;;;;;;7.38;3.83;;;22.90;1.00;;;;;;7394845;19;20039;-72
2023/08/19 05:22:57;;;;;;;6.57;4.13;;;22.60;1.00;;;;;;7395321;19;20053;-71
2023/08/19 05:25:29;;;;;;;8.32;3.97;;;22.20;1.00;;;;;;7395345;19;20089;-72
2023/08/19 05:28:02;;;;;;;5.85;4.38;;;22.00;1.00;;;;;;7395139;19;20015;-71
2023/08/19 05:30:31;;;;;;;6.28;4.30;;;21.90;1.00;;;;;;7393398;19;20045;-72
2023/08/19 05:33:01;;;;;;;8.77;4.65;;;21.90;1.00;;;;;;7395181;19;20021;-72
2023/08/19 05:35:32;;;;;;;5.88;4.85;;;21.70;1.00;;;;;;7394594;19;20090;-71
2023/08/19 05:38:01;;;;;;;8.88;4.90;;;22.10;1.00;;;;;;7393728;19;20061;-71
2023/08/19 05:40:31;;;;;;;8.10;4.35;;;24.70;1.00;;;;;;7393682;19;20086;-72
2023/08/19 05:43:04;;;;;;;7.43;4.03;;;25.40;1.00;;;;;;7394354;19;20478;-72
2023/08/19 05:45:35;;;;;;;10.32;4.40;;;26.20;1.00;;;;;;7395201;19;20097;-72
2023/08/19 05:48:06;;;;;;;7.55;3.60;;;25.00;1.00;;;;;;7394354;19;20014;-72
2023/08/19 05:50:37;;;;;;;4.90;4.10;;;23.60;1.00;;;;;;7393640;19;20023;-71
2023/08/19 05:53:07;;;;;;;9.10;3.97;;;23.40;1.00;;;;;;7394350;19;20019;-72
2023/08/19 05:55:37;;;;;;;5.15;3.70;;;23.30;1.00;;;;;;7394219;19;20011;-72
2023/08/19 05:58:09;;;;;;;6.72;3.90;;;23.30;1.00;;;;;;7392861;19;20021;-71
2023/08/19 06:00:39;;;;;;;9.18;3.95;;;23.40;1.00;;;;;;7391793;19;20026;-73
2023/08/19 06:03:09;;;;;;;7.60;3.72;;;23.50;1.00;;;;;;7394182;19;20011;-71
2023/08/19 06:05:39;;;;;;;7.20;3.50;;;23.60;1.00;;;;;;7393519;19;20017;-71
2023/08/19 06:08:10;;;;;;;8.55;3.80;;;23.70;1.00;;;;;;7394125;19;20031;-72
2023/08/19 06:10:43;;;;;;;5.13;3.30;;;23.70;1.00;;;;;;7393033;19;20029;-71
2023/08/19 06:13:16;;;;;;;5.80;4.25;;;24.00;1.00;;;;;;7393924;19;20018;-71
2023/08/19 06:15:46;;;;;;;5.78;3.53;;;24.20;1.00;;;;;;7394002;19;20022;-72
2023/08/19 06:18:16;;;;;;;5.35;3.58;;;24.00;1.00;;;;;;7392992;19;20019;-72
2023/08/19 06:20:47;;;;;;;6.00;3.70;;;24.20;1.00;;;;;;7392233;19;20010;-71
2023/08/19 06:23:17;;;;;;;5.28;3.53;;;24.20;1.00;;;;;;7392037;19;20018;-71
2023/08/19 06:25:48;;;;;;;6.07;3.40;;;24.00;1.00;;;;;;7393371;19;20015;-72
2023/08/19 06:28:22;;;;;;;6.80;3.17;;;24.10;1.00;;;;;;7390808;19;20018;-71
2023/08/19 06:30:52;;;;;;;5.22;3.22;;;24.10;1.00;;;;;;7391594;19;20119;-72
2023/08/19 06:33:23;;;;;;;7.72;3.85;;;24.40;1.00;;;;;;7393443;19;20014;-73
2023/08/19 06:35:54;;;;;;;6.32;3.25;;;24.40;1.00;;;;;;7393101;19;20179;-72
2023/08/19 06:38:29;;;;;;;9.35;3.85;;;24.60;1.00;;;;;;7392031;19;20006;-72
2023/08/19 06:41:03;;;;;;;6.53;3.38;;;24.70;1.00;;;;;;7391463;19;20101;-73
2023/08/19 06:43:37;;;;;;;6.82;3.25;;;24.70;1.00;;;;;;7392153;19;20010;-72
2023/08/19 06:46:08;;;;;;;6.00;3.15;;;24.60;1.00;;;;;;7394580;19;20018;-72
2023/08/19 06:48:40;;;;;;;7.05;3.42;;;24.70;1.00;;;;;;7392128;19;20035;-72
2023/08/19 06:51:10;;;;;;;4.93;3.05;;;24.90;1.00;;;;;;7390845;19;20018;-72
2023/08/19 06:53:41;;;;;;;5.22;3.35;;;25.00;1.00;;;;;;7392158;19;20022;-72
2023/08/19 06:56:18;;;;;;;6.32;3.10;;;25.20;1.00;;;;;;7392005;19;20011;-71
2023/08/19 06:58:55;;;;;;;7.57;3.47;;;25.00;1.00;;;;;;7390921;19;20022;-72
2023/08/19 07:01:29;;;;;;;4.82;3.42;;;25.10;1.00;;;;;;7390465;19;20014;-71
2023/08/19 07:03:59;;;;;;;;;;;25.40;1.00;;;;;;7392391;19;20090;-71
2023/08/19 07:06:32;;;;;;;5.43;3.10;;;25.70;1.00;;;;;;7391898;19;19939;-72
2023/08/19 07:09:05;;;;;;;4.80;3.10;;;25.70;1.00;;;;;;7391846;19;20518;-71
2023/08/19 07:11:38;;;;;;;7.25;3.10;;;25.70;1.00;;;;;;7390121;19;20280;-71
2023/08/19 07:14:12;;;;;;;4.40;3.30;;;25.70;1.00;;;;;;7389884;19;20571;-73
2023/08/19 07:16:43;;;;;;;6.45;3.50;;;25.80;1.00;;;;;;7391491;19;20086;-72
2023/08/19 07:19:15;;;;;;;5.97;3.08;;;26.10;1.00;;;;;;7389974;19;20014;-72
2023/08/19 07:21:46;;;;;;;6.93;3.10;;;26.40;1.00;;;;;;7389546;19;20021;-73
2023/08/19 07:24:17;;;;;;;5.32;2.92;;;26.60;1.00;;;;;;7389871;19;20014;-72
2023/08/19 07:26:49;;;;;;;5.30;2.95;;;26.50;1.00;;;;;;7391211;19;20092;-72
2023/08/19 07:29:22;;;;;;;4.47;2.88;;;26.50;1.00;;;;;;7390880;19;20361;-71
2023/08/19 07:31:52;;;;;;;4.80;3.10;;;26.80;1.00;;;;;;7389336;19;20131;-71
2023/08/19 07:34:22;;;;;;;6.75;3.72;;;26.90;1.00;;;;;;7390408;19;20031;-73
2023/08/19 07:36:53;;;;;;;6.55;2.90;;;26.90;1.00;;;;;;7391227;19;20015;-72
2023/08/19 07:39:25;;;;;;;7.53;3.08;;;26.90;1.00;;;;;;7388855;19;20021;-72
2023/08/19 07:41:55;;;;;;;5.18;2.92;;;27.10;1.00;;;;;;7389004;19;20022;-71
2023/08/19 07:44:28;;;;;;;7.70;3.22;;;27.30;1.00;;;;;;7390121;19;20042;-72
2023/08/19 07:47:00;;;;;;;3.92;2.70;;;27.20;1.00;;;;;;7392790;19;20019;-71
2023/08/19 07:49:30;;;;;;;4.93;3.10;;;27.10;1.00;;;;;;7389952;19;20066;-71
2023/08/19 07:52:00;;;;;;;4.20;2.90;;;27.40;1.00;;;;;;7389128;19;20019;-71
2023/08/19 07:54:30;;;;;;;6.85;2.78;;;27.50;1.00;;;;;;7388586;19;20021;-72
2023/08/19 07:57:00;;;;;;;4.20;2.80;;;27.50;1.00;;;;;;7390334;19;20023;-72
2023/08/19 07:59:34;;;;;;;6.95;3.30;;;27.80;1.00;;;;;;7388990;19;20480;-71
2023/08/19 08:02:04;;;;;;;;;;;27.60;1.00;;;;;;7390563;19;20032;-72
2023/08/19 08:04:34;;;;;;;7.78;3.33;;;27.70;1.00;;;;;;7389042;19;19930;-72
2023/08/19 08:07:04;;;;;;;5.03;3.35;;;27.60;1.00;;;;;;7390171;19;20020;-71
2023/08/19 08:09:34;;;;;;;5.72;2.90;;;27.60;1.00;;;;;;7389563;19;20090;-71
2023/08/19 08:12:04;;;;;;;5.28;2.75;;;27.80;1.00;;;;;;7389841;19;20096;-71
2023/08/19 08:14:36;;;;;;;3.55;2.40;;;28.10;1.00;;;;;;7389414;19;20096;-73
2023/08/19 08:17:06;;;;;;;3.55;2.70;;;28.30;1.00;;;;;;7389261;19;20018;-72
2023/08/19 08:19:38;;;;;;;8.27;3.38;;;28.40;1.00;;;;;;7388711;19;20014;-73
2023/08/19 08:22:08;;;;;;;4.32;3.00;;;28.40;1.00;;;;;;7387811;19;20051;-72
2023/08/19 08:24:39;;;;;;;5.20;2.85;;;28.70;1.00;;;;;;7388969;19;20479;-72
2023/08/19 08:27:09;;;;;;;6.78;3.22;;;28.50;1.00;;;;;;7389348;19;20018;-73
2023/08/19 08:29:42;;;;;;;4.82;3.20;;;28.50;1.00;;;;;;7388452;19;20019;-72
2023/08/19 08:32:12;;;;;;;4.78;2.75;;;28.80;1.00;;;;;;7387244;19;20018;-71
2023/08/19 08:34:42;;;;;;;9.52;3.20;;;28.60;1.00;;;;;;7386890;19;20039;-73
2023/08/19 08:37:12;;;;;;;5.32;3.40;;;28.50;1.00;;;;;;7388691;19;20014;-72
2023/08/19 08:39:42;;;;;;;4.20;3.17;;;28.80;1.00;;;;;;7387906;19;20014;-72
2023/08/19 08:42:12;;;;;;;7.13;3.22;;;29.00;1.00;;;;;;7388615;19;20025;-72
2023/08/19 08:44:47;;;;;;;6.28;3.15;;;29.30;1.00;;;;;;7388501;19;20069;-73
2023/08/19 08:47:18;;;;;;;6.25;3.17;;;29.30;1.00;;;;;;7392871;19;20111;-71
2023/08/19 08:49:49;;;;;;;8.27;3.45;;;29.30;1.00;;;;;;7387811;19;20014;-72
2023/08/19 08:52:20;;;;;;;8.40;3.28;;;29.40;1.00;;;;;;7387456;19;20015;-72
2023/08/19 08:54:53;;;;;;;8.68;2.97;;;29.50;1.00;;;;;;7387760;19;20025;-72
2023/08/19 08:57:23;;;;;;;9.45;3.17;;;29.60;1.00;;;;;;7387776;19;20015;-73
2023/08/19 08:59:56;;;;;;;6.10;3.22;;;29.70;1.00;;;;;;7387305;19;20018;-72
2023/08/19 09:02:29;;;;;;;6.28;3.50;;;29.80;1.00;;;;;;7388194;19;20014;-73
2023/08/19 09:05:04;;;;;;;6.22;3.03;;;29.70;1.00;;;;;;7387715;19;20018;-73
2023/08/19 09:07:43;;;;;;;5.07;3.47;;;29.80;1.00;;;;;;7387921;19;20515;-71
2023/08/19 09:10:15;;;;;;;5.97;2.92;;;29.90;1.00;;;;;;7387273;19;20039;-72
2023/08/19 09:12:47;;;;;;;6.47;3.30;;;30.00;1.00;;;;;;7387951;19;20022;-72
2023/08/19 09:15:21;;;;;;;5.53;2.72;;;30.10;1.00;;;;;;7387333;19;20036;-71
2023/08/19 09:17:52;;;;;;;4.47;3.03;;;30.20;1.00;;;;;;7387259;19;20019;-73
2023/08/19 09:20:23;;;;;;;9.63;3.25;;;30.30;1.00;;;;;;7386428;19;20015;-72
2023/08/19 09:22:53;;;;;;;7.03;3.10;;;30.30;1.00;;;;;;7388067;19;20183;-72
2023/08/19 09:25:24;;;;;;;6.00;3.35;;;30.10;1.00;;;;;;7387376;19;20111;-73
2023/08/19 09:27:54;;;;;;;6.38;2.88;;;30.40;1.00;;;;;;7385787;19;20018;-73
2023/08/19 09:30:33;;;;;;;8.98;3.00;;;30.40;1.00;;;;;;7387005;19;20019;-72
2023/08/19 09:33:04;;;;;;;7.28;3.67;;;30.50;1.00;;;;;;7387414;19;20014;-72
2023/08/19 09:35:38;;;;;;;10.38;3.30;;;30.60;1.00;;;;;;7387259;19;20015;-71
2023/08/19 09:38:27;;;;;;;6.93;3.13;;;30.30;1.00;;;;;;7386791;19;20018;-73
2023/08/19 09:41:03;;;;;;;6.88;3.15;;;30.40;1.00;;;;;;7385984;19;20015;-73
2023/08/19 09:43:34;;;;;;;4.97;2.65;;;30.40;1.00;;;;;;7387020;19;20018;-72
2023/08/19 09:46:06;;;;;;;6.05;3.20;;;30.50;1.00;;;;;;7388521;19;20006;-72
2023/08/19 09:48:39;;;;;;;4.40;2.78;;;30.50;1.00;;;;;;7386972;19;20027;-72
2023/08/19 09:51:10;;;;;;;9.35;3.35;;;30.70;1.00;;;;;;7385237;19;20519;-73
2023/08/19 09:53:40;;;;;;;5.68;3.53;;;30.70;1.00;;;;;;7386677;19;20031;-72
2023/08/19 09:56:22;;;;;;;3.95;2.80;;;31.00;1.00;;;;;;7386914;19;20029;-72
2023/08/19 09:58:53;;;;;;;6.18;3.13;;;30.90;1.00;;;;;;7386848;19;20022;-72
2023/08/19 10:01:27;;;;;;;6.13;3.25;;;31.00;1.00;;;;;;7384630;19;20018;-72
2023/08/19 10:03:57;;;;;;;8.40;3.50;;;31.00;1.00;;;;;;7393563;19;20019;-72
2023/08/19 10:06:29;;;;;;;7.63;3.50;;;31.00;1.00;;;;;;7393808;19;20021;-73
2023/08/19 10:09:04;;;;;;;6.80;3.30;;;31.00;1.00;;;;;;7393537;19;20477;-73
2023/08/19 10:11:35;;;;;;;7.60;3.70;;;31.20;1.00;;;;;;7391708;19;20028;-73
2023/08/19 10:14:06;;;;;;;5.63;3.40;;;31.10;1.00;;;;;;7392852;19;20015;-72
2023/08/19 10:16:43;;;;;;;6.25;3.08;;;31.40;1.00;;;;;;7393182;19;20381;-72
2023/08/19 10:19:18;;;;;;;5.78;3.30;;;31.70;1.00;;;;;;7393471;19;20475;-72
2023/08/19 10:21:50;;;;;;;5.93;3.20;;;31.50;1.00;;;;;;7390709;19;20478;-72
2023/08/19 10:24:21;;;;;;;10.15;3.80;;;31.40;1.00;;;;;;7391440;19;20014;-72
2023/08/19 10:26:51;;;;;;;4.95;3.22;;;31.20;1.00;;;;;;7391325;19;20085;-72
2023/08/19 10:29:21;;;;;;;7.18;3.10;;;31.30;1.00;;;;;;7393263;19;20031;-71
2023/08/19 10:31:53;;;;;;;7.10;3.60;;;31.50;1.00;;;;;;7390300;19;20081;-71
2023/08/19 10:34:28;;;;;;;5.75;3.00;;;31.50;1.00;;;;;;7393075;19;20017;-70
2023/08/19 10:37:08;;;;;;;6.47;3.50;;;31.80;1.00;;;;;;7392516;19;20019;-71
2023/08/19 10:39:39;;;;;;;6.40;3.00;;;31.60;1.00;;;;;;7392666;19;20426;-71
2023/08/19 10:42:09;;;;;;;8.30;3.58;;;31.60;1.00;;;;;;7390752;19;20043;-72
2023/08/19 10:44:40;;;;;;;5.97;3.00;;;31.70;1.00;;;;;;7389851;19;20486;-72
2023/08/19 10:47:15;;;;;;;5.88;3.47;;;31.80;1.00;;;;;;7393520;19;20034;-73
2023/08/19 10:49:45;;;;;;;6.78;3.20;;;31.70;1.00;;;;;;7392338;19;20044;-72
2023/08/19 10:52:22;;;;;;;3.45;2.90;;;31.90;1.00;;;;;;7390414;19;20061;-71
2023/08/19 10:54:52;;;;;;;6.88;3.20;;;32.30;1.00;;;;;;7391745;19;20019;-72
2023/08/19 10:57:25;;;;;;;7.68;3.17;;;32.30;1.00;;;;;;7392105;19;20483;-71
2023/08/19 10:59:58;;;;;;;4.88;2.97;;;32.10;1.00;;;;;;7389950;19;20019;-71
2023/08/19 11:02:32;;;;;;;6.85;3.10;;;32.00;1.00;;;;;;7390086;19;20059;-72
2023/08/19 11:05:04;;;;;;;6.05;3.58;;;32.30;1.00;;;;;;7391722;19;20056;-73
2023/08/19 11:07:34;;;;;;;8.15;2.80;;;32.60;1.00;;;;;;7391326;19;20018;-72
2023/08/19 11:10:04;;;;;;;7.20;3.10;;;32.70;1.00;;;;;;7391068;19;20036;-73
2023/08/19 11:12:34;;;;;;;5.85;3.33;;;32.70;1.00;;;;;;7391973;19;20044;-72
2023/08/19 11:15:05;;;;;;;3.50;2.80;;;32.70;1.00;;;;;;7390036;19;20014;-72
2023/08/19 11:17:37;;;;;;;5.10;3.30;;;32.80;1.00;;;;;;7390110;19;20035;-72
2023/08/19 11:20:12;;;;;;;7.97;3.30;;;32.70;1.00;;;;;;7390169;19;20031;-71
2023/08/19 11:22:43;;;;;;;9.02;3.00;;;33.00;1.00;;;;;;7389148;19;20018;-72
2023/08/19 11:25:14;;;;;;;6.78;2.80;;;32.80;1.00;;;;;;7391405;19;20018;-72
2023/08/19 11:27:44;;;;;;;5.97;2.70;;;32.90;1.00;;;;;;7389119;19;20018;-73
2023/08/19 11:30:18;;;;;;;4.97;2.97;;;33.10;1.00;;;;;;7390414;19;20018;-71
2023/08/19 11:32:51;;;;;;;3.83;2.40;;;33.00;1.00;;;;;;7391087;19;20018;-72
2023/08/19 11:35:21;;;;;;;4.10;2.77;;;32.80;1.00;;;;;;7390509;19;20416;-72
2023/08/19 11:37:51;;;;;;;5.32;2.75;;;33.00;1.00;;;;;;7388896;19;20014;-72
2023/08/19 11:40:21;;;;;;;6.75;2.90;;;33.20;1.00;;;;;;7390307;19;20081;-72
2023/08/19 11:43:07;;;;;;;3.95;2.95;;;33.00;1.00;;;;;;7388613;19;20078;-72
2023/08/19 11:45:39;;;;;;;7.15;3.13;;;33.10;1.00;;;;;;7390499;19;20078;-73
2023/08/19 11:48:16;;;;;;;6.05;2.90;;;32.70;1.00;;;;;;7389296;19;20022;-73
2023/08/19 11:50:47;;;;;;;4.82;2.88;;;33.00;1.00;;;;;;7389703;19;20014;-72
2023/08/19 11:53:24;;;;;;;11.07;3.17;;;33.10;1.00;;;;;;7390211;19;20478;-72
2023/08/19 11:55:57;;;;;;;3.55;2.65;;;33.20;1.00;;;;;;7390691;19;20013;-72
2023/08/19 11:58:40;;;;;;;4.25;2.60;;;33.30;1.00;;;;;;7389745;19;20506;-71
2023/08/19 12:01:10;;;;;;;4.55;3.05;;;33.40;1.00;;;;;;7388838;19;20029;-72
2023/08/19 12:03:46;;;;;;;5.40;2.88;;;33.40;1.00;;;;;;7389593;19;20036;-72
2023/08/19 12:06:17;;;;;;;7.00;2.78;;;33.00;1.00;;;;;;7389953;19;20011;-71
2023/08/19 12:08:49;;;;;;;8.25;3.33;;;32.60;1.00;;;;;;7389777;19;20019;-72
2023/08/19 12:11:26;;;;;;;5.97;2.80;;;33.30;1.00;;;;;;7388720;19;20026;-72
2023/08/19 12:13:57;;;;;;;4.70;2.90;;;33.50;1.00;;;;;;7388807;19;20021;-72
2023/08/19 12:16:26;;;;;;;4.57;2.50;;;33.20;1.00;;;;;;7390054;19;20090;-71
2023/08/19 12:19:00;;;;;;;4.50;2.65;;;33.20;1.00;;;;;;7388823;19;20018;-71
2023/08/19 12:21:30;;;;;;;7.28;3.00;;;33.20;1.00;;;;;;7388613;19;20033;-71
2023/08/19 12:24:00;;;;;;;4.43;2.67;;;33.30;1.00;;;;;;7388998;19;20023;-73
2023/08/19 12:26:30;;;;;;;4.03;2.65;;;33.50;1.00;;;;;;7387216;19;20098;-72
2023/08/19 12:29:00;;;;;;;4.03;2.58;;;33.60;1.00;;;;;;7389145;19;20010;-71
2023/08/19 12:31:30;;;;;;;4.93;2.80;;;33.40;1.00;;;;;;7386220;19;20018;-70
2023/08/19 12:34:02;;;;;;;5.13;2.50;;;33.30;1.00;;;;;;7388711;19;20029;-72
2023/08/19 12:36:32;;;;;;;4.75;2.80;;;33.40;1.00;;;;;;7389637;19;20022;-71
2023/08/19 12:39:04;;;;;;;6.05;2.80;;;33.30;1.00;;;;;;7388563;19;20086;-71
2023/08/19 12:41:33;;;;;;;9.07;2.60;;;32.90;1.00;;;;;;7387301;19;20013;-71
2023/08/19 12:44:03;;;;;;;6.00;2.75;;;33.10;1.00;;;;;;7388320;19;20036;-72
2023/08/19 12:46:42;;;;;;;4.07;2.50;;;33.30;1.00;;;;;;7391678;19;20014;-71
2023/08/19 12:49:15;;;;;;;4.15;2.70;;;33.70;1.00;;;;;;7386556;19;20471;-72
2023/08/19 12:51:45;;;;;;;6.40;3.10;;;33.60;1.00;;;;;;7387591;19;20018;-72
2023/08/19 12:54:14;;;;;;;4.68;2.60;;;33.30;1.00;;;;;;7388258;19;20010;-71
2023/08/19 12:56:44;;;;;;;5.97;3.20;;;33.60;1.00;;;;;;7388349;19;20019;-72
2023/08/19 12:59:14;;;;;;;7.25;2.55;;;33.80;1.00;;;;;;7386758;19;20021;-71
2023/08/19 13:01:44;;;;;;;6.72;2.80;;;33.90;1.00;;;;;;7385290;19;20115;-72
2023/08/19 13:04:17;;;;;;;5.10;2.88;;;33.70;1.00;;;;;;7389109;19;20124;-72
2023/08/19 13:06:48;;;;;;;4.80;2.78;;;33.60;1.00;;;;;;7388358;19;20694;-71
2023/08/19 13:09:20;;;;;;;5.85;2.85;;;33.00;1.00;;;;;;7387967;19;20043;-71
2023/08/19 13:11:51;;;;;;;4.78;2.70;;;33.40;1.00;;;;;;7386587;19;20015;-72
2023/08/19 13:14:20;;;;;;;5.40;3.15;;;33.30;1.00;;;;;;7386243;19;20017;-71
2023/08/19 13:16:50;;;;;;;4.47;3.03;;;33.10;1.00;;;;;;7388587;19;20510;-71
2023/08/19 13:19:23;;;;;;;4.18;3.20;;;33.20;1.00;;;;;;7387755;19;20475;-72